createdAt,value
2023-12-08T00:01:16.040Z,2.50
2023-12-08T00:03:46.861Z,2.32
2023-12-08T00:06:16.844Z,2.39
2023-12-08T00:08:46.345Z,2.31
2023-12-08T00:11:15.862Z,2.43
2023-12-08T00:13:48.400Z,2.32
2023-12-08T00:16:18.442Z,2.48
2023-12-08T00:18:50.004Z,2.49
2023-12-08T00:21:19.972Z,2.45
2023-12-08T00:23:50.673Z,2.41
2023-12-08T00:26:20.432Z,2.51
2023-12-08T00:28:49.909Z,2.42
2023-12-08T00:31:19.187Z,2.42
2023-12-08T00:33:50.434Z,2.46
2023-12-08T00:36:20.309Z,2.46
2023-12-08T00:38:50.489Z,2.44
2023-12-08T00:41:20.447Z,2.58
2023-12-08T00:43:49.785Z,2.58
2023-12-08T00:46:19.594Z,2.60
2023-12-08T00:48:50.772Z,2.57
2023-12-08T00:51:20.398Z,2.43
2023-12-08T00:53:50.222Z,2.54
2023-12-08T00:56:20.096Z,2.57
2023-12-08T00:58:49.476Z,2.50
2023-12-08T01:01:19.699Z,2.52
2023-12-08T01:03:50.420Z,2.51
2023-12-08T01:06:19.649Z,2.54
2023-12-08T01:08:48.927Z,2.55
2023-12-08T01:11:18.837Z,2.51
2023-12-08T01:13:48.652Z,2.47
2023-12-08T01:16:17.957Z,2.57
2023-12-08T01:18:47.180Z,2.52
2023-12-08T01:21:17.913Z,2.43
2023-12-08T01:23:47.339Z,2.58
2023-12-08T01:26:17.000Z,2.36
2023-12-08T01:28:46.252Z,2.35
2023-12-08T01:31:15.734Z,2.41
2023-12-08T01:33:45.700Z,2.45
2023-12-08T01:36:39.176Z,2.36
2023-12-08T01:39:07.539Z,2.48
2023-12-08T01:41:36.838Z,2.52
2023-12-08T01:44:06.668Z,2.48
2023-12-08T01:46:40.398Z,2.51
2023-12-08T01:49:09.661Z,2.52
2023-12-08T01:51:39.511Z,2.39
2023-12-08T01:54:10.837Z,2.46
2023-12-08T01:56:41.931Z,2.35
2023-12-08T01:59:11.397Z,2.40
2023-12-08T02:01:40.986Z,2.43
2023-12-08T02:04:12.334Z,2.48
2023-12-08T02:06:41.942Z,2.40
2023-12-08T02:09:14.221Z,2.33
2023-12-08T02:11:43.576Z,2.33
2023-12-08T02:14:15.396Z,2.35
2023-12-08T02:16:52.310Z,2.37
2023-12-08T02:19:22.645Z,2.31
2023-12-08T02:21:52.211Z,2.30
2023-12-08T02:24:23.162Z,2.35
2023-12-08T02:26:53.786Z,2.46
2023-12-08T02:29:23.894Z,2.37
2023-12-08T02:32:02.701Z,2.30
2023-12-08T02:34:34.662Z,2.35
2023-12-08T02:37:06.552Z,2.24
2023-12-08T02:39:38.421Z,2.32
2023-12-08T02:42:08.603Z,2.31
2023-12-08T02:44:38.094Z,2.26
2023-12-08T02:47:08.052Z,2.28
2023-12-08T02:49:37.684Z,2.17
2023-12-08T02:52:07.500Z,2.30
2023-12-08T02:54:38.888Z,2.27
2023-12-08T02:57:08.575Z,2.16
2023-12-08T02:59:37.972Z,2.32
2023-12-08T03:02:07.354Z,2.24
2023-12-08T03:04:36.537Z,2.29
2023-12-08T03:07:06.036Z,2.33
2023-12-08T03:09:35.257Z,2.30
2023-12-08T03:12:06.925Z,2.30
2023-12-08T03:14:36.049Z,2.31
2023-12-08T03:17:05.991Z,2.22
2023-12-08T03:19:35.206Z,2.25
2023-12-08T03:22:04.445Z,2.28
2023-12-08T03:24:34.725Z,2.32
2023-12-08T03:27:06.160Z,2.42
2023-12-08T03:29:37.068Z,2.33
2023-12-08T03:32:06.860Z,2.34
2023-12-08T03:34:36.852Z,2.43
2023-12-08T03:37:06.128Z,2.50
2023-12-08T03:39:35.590Z,2.36
2023-12-08T03:42:06.950Z,2.41
2023-12-08T03:44:36.442Z,2.42
2023-12-08T03:47:06.982Z,2.25
2023-12-08T03:49:36.222Z,2.30
2023-12-08T03:52:06.550Z,2.24
2023-12-08T03:54:38.338Z,2.30
2023-12-08T03:57:09.840Z,2.32
2023-12-08T03:59:39.139Z,2.16
2023-12-08T04:02:08.676Z,2.22
2023-12-08T04:04:38.240Z,2.21
2023-12-08T04:07:09.915Z,2.17
2023-12-08T04:09:40.174Z,2.16
2023-12-08T04:12:12.319Z,2.17
2023-12-08T04:14:42.897Z,2.04
2023-12-08T04:17:12.871Z,2.18
2023-12-08T04:19:42.452Z,2.14
2023-12-08T04:22:11.442Z,2.07
2023-12-08T04:24:40.514Z,2.26
2023-12-08T04:27:11.798Z,2.26
2023-12-08T04:29:41.774Z,2.20
2023-12-08T04:32:11.102Z,2.22
2023-12-08T04:34:40.428Z,2.23
2023-12-08T04:37:09.872Z,2.28
2023-12-08T04:39:39.128Z,2.23
2023-12-08T04:42:12.706Z,2.13
2023-12-08T04:44:42.544Z,2.24
2023-12-08T04:47:13.254Z,2.19
2023-12-08T04:49:42.463Z,2.28
2023-12-08T04:52:11.917Z,2.18
2023-12-08T04:54:41.202Z,2.19
2023-12-08T04:57:12.240Z,2.22
2023-12-08T04:59:41.967Z,2.18
2023-12-08T05:02:11.032Z,2.06
2023-12-08T05:04:40.517Z,2.13
2023-12-08T05:07:10.712Z,2.16
2023-12-08T05:09:41.089Z,2.10
2023-12-08T05:12:11.970Z,2.09
2023-12-08T05:14:41.278Z,2.10
2023-12-08T05:17:10.685Z,2.18
2023-12-08T05:19:40.241Z,2.16
2023-12-08T05:22:09.648Z,2.24
2023-12-08T05:24:38.827Z,2.24
2023-12-08T05:27:09.476Z,2.26
2023-12-08T05:29:41.561Z,2.21
2023-12-08T05:32:11.943Z,2.26
2023-12-08T05:34:42.333Z,2.18
2023-12-08T05:37:12.003Z,2.18
2023-12-08T05:39:41.235Z,2.25
2023-12-08T05:42:11.217Z,2.20
2023-12-08T05:44:42.451Z,2.16
2023-12-08T05:47:12.230Z,2.06
2023-12-08T05:49:42.248Z,2.22
2023-12-08T05:52:12.220Z,2.17
2023-12-08T05:54:41.683Z,2.26
2023-12-08T05:57:11.106Z,2.14
2023-12-08T05:59:42.157Z,2.13
2023-12-08T06:02:11.457Z,2.19
2023-12-08T06:04:41.071Z,2.19
2023-12-08T06:07:10.537Z,2.14
2023-12-08T06:09:39.892Z,2.24
2023-12-08T06:12:09.756Z,2.29
2023-12-08T06:14:40.429Z,2.23
2023-12-08T06:17:11.804Z,2.25
2023-12-08T06:19:43.367Z,2.30
2023-12-08T06:22:14.061Z,2.28
2023-12-08T06:24:43.244Z,2.29
2023-12-08T06:27:13.250Z,2.33
2023-12-08T06:29:43.973Z,2.38
2023-12-08T06:32:15.068Z,2.48
2023-12-08T06:34:44.912Z,2.38
2023-12-08T06:37:14.273Z,2.41
2023-12-08T06:39:44.334Z,2.41
2023-12-08T06:42:13.996Z,2.36
2023-12-08T06:44:46.381Z,2.18
2023-12-08T06:47:18.050Z,2.24
2023-12-08T06:49:47.923Z,2.09
2023-12-08T06:52:17.286Z,2.23
2023-12-08T06:54:46.853Z,2.28
2023-12-08T06:57:16.248Z,2.35
2023-12-08T06:59:45.935Z,2.39
2023-12-08T07:02:17.747Z,2.47
2023-12-08T07:04:47.349Z,2.27
2023-12-08T07:07:18.124Z,2.40
2023-12-08T07:09:48.121Z,2.39
2023-12-08T07:12:18.122Z,2.35
2023-12-08T07:14:52.063Z,2.37
2023-12-08T07:17:22.817Z,2.29
2023-12-08T07:19:53.939Z,2.39
2023-12-08T07:22:24.172Z,2.33
2023-12-08T07:24:54.658Z,2.45
2023-12-08T07:27:25.280Z,2.44
2023-12-08T07:29:55.958Z,2.27
2023-12-08T07:32:31.302Z,2.51
2023-12-08T07:35:01.169Z,2.53
2023-12-08T07:37:31.027Z,2.41
2023-12-08T07:40:00.589Z,2.49
2023-12-08T07:42:30.036Z,2.58
2023-12-08T07:45:00.201Z,2.61
2023-12-08T07:47:34.507Z,2.50
2023-12-08T07:50:04.008Z,2.47
2023-12-08T07:52:34.024Z,2.46
2023-12-08T07:55:04.517Z,2.51
2023-12-08T07:57:34.055Z,2.48
2023-12-08T08:00:06.118Z,2.47
2023-12-08T08:02:37.062Z,2.54
2023-12-08T08:05:09.053Z,2.52
2023-12-08T08:07:39.741Z,2.64
2023-12-08T08:10:10.324Z,2.60
2023-12-08T08:12:39.492Z,2.62
2023-12-08T08:15:10.034Z,2.69
2023-12-08T08:17:41.473Z,2.82
2023-12-08T08:20:11.634Z,2.95
2023-12-08T08:22:41.759Z,3.00
2023-12-08T08:25:12.158Z,3.10
2023-12-08T08:27:42.969Z,3.14
2023-12-08T08:30:13.168Z,3.11
2023-12-08T08:32:45.444Z,3.15
2023-12-08T08:35:15.651Z,3.13
2023-12-08T08:37:46.851Z,3.20
2023-12-08T08:40:16.675Z,3.23
2023-12-08T08:42:46.526Z,3.29
2023-12-08T08:45:16.929Z,3.36
2023-12-08T08:47:48.278Z,3.26
2023-12-08T08:50:17.840Z,3.33
2023-12-08T08:52:47.673Z,3.34
2023-12-08T08:55:18.173Z,3.38
2023-12-08T08:57:48.837Z,3.37
2023-12-08T09:00:19.765Z,3.36
2023-12-08T09:02:53.454Z,3.45
2023-12-08T09:05:23.814Z,3.48
2023-12-08T09:07:53.307Z,3.41
2023-12-08T09:10:23.345Z,3.43
2023-12-08T09:12:53.448Z,3.42
2023-12-08T09:15:23.254Z,3.53
2023-12-08T09:17:55.903Z,3.59
2023-12-08T09:20:25.301Z,3.64
2023-12-08T09:22:54.772Z,3.51
2023-12-08T09:25:24.984Z,3.50
2023-12-08T09:27:54.214Z,3.58
2023-12-08T09:30:24.112Z,3.53
2023-12-08T09:32:55.324Z,3.53
2023-12-08T09:35:26.485Z,3.48
2023-12-08T09:37:55.956Z,3.55
2023-12-08T09:40:26.887Z,3.58
2023-12-08T09:43:00.924Z,3.62
2023-12-08T09:45:31.003Z,3.58
2023-12-08T09:48:03.151Z,3.59
2023-12-08T09:50:34.156Z,3.52
2023-12-08T09:53:04.905Z,3.47
2023-12-08T09:55:37.233Z,3.47
2023-12-08T09:58:07.231Z,3.33
2023-12-08T10:00:39.051Z,3.54
2023-12-08T10:03:10.780Z,3.44
2023-12-08T10:05:40.201Z,3.66
2023-12-08T10:08:15.270Z,3.71
2023-12-08T10:10:46.271Z,3.62
2023-12-08T10:13:15.705Z,3.63
2023-12-08T10:15:46.433Z,3.53
2023-12-08T10:18:27.009Z,3.65
2023-12-08T10:21:18.261Z,3.62
2023-12-08T10:23:51.031Z,3.57
2023-12-08T10:26:21.503Z,3.65
2023-12-08T10:28:51.037Z,3.53
2023-12-08T10:31:20.160Z,3.53
2023-12-08T10:33:54.113Z,3.57
2023-12-08T10:36:23.473Z,3.51
2023-12-08T10:38:54.392Z,3.53
2023-12-08T10:41:25.198Z,3.40
2023-12-08T10:43:54.962Z,3.37
2023-12-08T10:46:26.370Z,3.45
2023-12-08T10:48:59.538Z,3.44
2023-12-08T10:51:29.999Z,3.43
2023-12-08T10:54:02.538Z,3.47
2023-12-08T10:56:35.150Z,3.47
2023-12-08T10:59:11.563Z,3.47
2023-12-08T11:01:42.416Z,3.53
2023-12-08T11:04:19.433Z,3.51
2023-12-08T11:06:57.826Z,3.50
2023-12-08T11:09:32.464Z,3.58
2023-12-08T11:12:04.886Z,3.61
2023-12-08T11:14:40.722Z,3.67
2023-12-08T11:17:21.167Z,3.57
2023-12-08T11:19:53.629Z,3.62
2023-12-08T11:22:23.128Z,3.62
2023-12-08T11:24:55.535Z,3.70
2023-12-08T11:27:33.550Z,3.67
2023-12-08T11:30:12.350Z,3.75
2023-12-08T11:32:49.742Z,3.68
2023-12-08T11:35:21.406Z,3.71
2023-12-08T11:37:51.605Z,3.72
2023-12-08T11:40:20.834Z,3.77
2023-12-08T11:42:52.508Z,3.59
2023-12-08T11:45:22.050Z,3.51
2023-12-08T11:47:56.435Z,3.62
2023-12-08T11:50:28.026Z,3.52
2023-12-08T11:52:58.229Z,3.58
2023-12-08T11:55:35.318Z,3.51
2023-12-08T11:58:10.885Z,3.69
2023-12-08T12:00:44.883Z,3.69
2023-12-08T12:03:15.006Z,3.72
2023-12-08T12:05:50.480Z,3.78
2023-12-08T12:08:20.734Z,3.64
2023-12-08T12:10:52.587Z,3.72
2023-12-08T12:13:25.506Z,3.85
2023-12-08T12:15:59.270Z,3.86
2023-12-08T12:18:31.812Z,3.63
2023-12-08T12:21:03.248Z,3.78
2023-12-08T12:23:32.950Z,3.84
2023-12-08T12:26:02.817Z,3.72
2023-12-08T12:28:32.728Z,3.82
2023-12-08T12:31:02.541Z,3.71
2023-12-08T12:33:32.143Z,3.79
2023-12-08T12:36:03.856Z,3.72
2023-12-08T12:38:33.634Z,3.83
2023-12-08T12:41:26.997Z,3.61
2023-12-08T12:44:00.292Z,3.75
2023-12-08T12:46:30.483Z,3.75
2023-12-08T12:49:01.267Z,3.75
2023-12-08T12:51:39.237Z,3.69
2023-12-08T12:54:12.765Z,3.76
2023-12-08T12:56:52.338Z,3.68
2023-12-08T12:59:22.899Z,3.78
2023-12-08T13:01:53.165Z,3.75
2023-12-08T13:04:30.690Z,3.66
2023-12-08T13:07:15.309Z,3.71
2023-12-08T13:09:44.500Z,3.70
2023-12-08T13:12:14.914Z,3.50
2023-12-08T13:14:44.910Z,3.44
2023-12-08T13:17:15.372Z,3.54
2023-12-08T13:19:44.799Z,3.51
2023-12-08T13:22:15.834Z,3.64
2023-12-08T13:24:48.657Z,3.65
2023-12-08T13:27:19.186Z,3.67
2023-12-08T13:29:48.973Z,3.67
2023-12-08T13:32:18.562Z,3.62
2023-12-08T13:34:48.083Z,3.65
2023-12-08T13:37:19.769Z,3.68
2023-12-08T13:39:50.041Z,3.68
2023-12-08T13:42:19.459Z,3.71
2023-12-08T13:44:48.992Z,3.74
2023-12-08T13:47:19.437Z,3.79
2023-12-08T13:49:52.163Z,3.62
2023-12-08T13:52:24.385Z,3.55
2023-12-08T13:54:54.127Z,3.69
2023-12-08T13:57:24.011Z,3.59
2023-12-08T13:59:55.368Z,3.68
2023-12-08T14:02:24.790Z,3.69
2023-12-08T14:04:54.398Z,3.68
2023-12-08T14:07:26.999Z,3.54
2023-12-08T14:09:56.641Z,3.69
2023-12-08T14:12:27.882Z,3.64
2023-12-08T14:14:57.659Z,3.63
2023-12-08T14:17:27.214Z,3.65
2023-12-08T14:19:57.408Z,3.66
2023-12-08T14:22:28.979Z,3.73
2023-12-08T14:24:59.087Z,3.67
2023-12-08T14:27:30.461Z,3.61
2023-12-08T14:30:02.879Z,3.63
2023-12-08T14:32:33.532Z,3.67
2023-12-08T14:35:10.734Z,3.69
2023-12-08T14:37:49.902Z,3.56
2023-12-08T14:40:21.153Z,3.54
2023-12-08T14:42:51.196Z,3.52
2023-12-08T14:45:20.879Z,3.55
2023-12-08T14:47:50.577Z,3.47
2023-12-08T14:50:20.835Z,3.38
2023-12-08T14:52:53.914Z,3.40
2023-12-08T14:55:22.806Z,3.41
2023-12-08T14:57:52.173Z,3.28
2023-12-08T15:00:21.861Z,3.27
2023-12-08T15:02:52.275Z,3.31
2023-12-08T15:05:21.590Z,3.32
2023-12-08T15:07:53.659Z,3.33
2023-12-08T15:10:23.191Z,3.31
2023-12-08T15:12:52.780Z,3.29
2023-12-08T15:15:24.911Z,3.24
2023-12-08T15:18:02.550Z,3.27
2023-12-08T15:20:37.019Z,3.24
2023-12-08T15:23:09.366Z,3.20
2023-12-08T15:25:41.117Z,3.23
2023-12-08T15:28:12.136Z,3.21
2023-12-08T15:30:41.552Z,3.29
2023-12-08T15:33:13.480Z,3.32
2023-12-08T15:35:43.274Z,3.29
2023-12-08T15:38:14.982Z,3.29
2023-12-08T15:40:44.571Z,3.31
2023-12-08T15:43:14.227Z,3.31
2023-12-08T15:45:44.183Z,3.31
2023-12-08T15:48:14.210Z,3.37
2023-12-08T15:50:44.239Z,3.07
2023-12-08T15:53:15.442Z,3.27
2023-12-08T15:55:47.123Z,3.30
2023-12-08T15:58:16.848Z,3.29
2023-12-08T16:00:46.764Z,3.30
2023-12-08T16:03:17.144Z,3.28
2023-12-08T16:05:46.629Z,3.31
2023-12-08T16:08:18.236Z,3.40
2023-12-08T16:10:48.738Z,3.34
2023-12-08T16:13:18.849Z,3.31
2023-12-08T16:15:49.537Z,3.41
2023-12-08T16:18:19.828Z,3.39
2023-12-08T16:20:53.985Z,3.29
2023-12-08T16:23:25.216Z,3.25
2023-12-08T16:26:02.420Z,3.23
2023-12-08T16:28:33.138Z,3.27
2023-12-08T16:31:02.810Z,3.29
2023-12-08T16:33:35.099Z,3.31
2023-12-08T16:36:05.341Z,3.25
2023-12-08T16:38:37.745Z,3.28
2023-12-08T16:41:09.600Z,3.14
2023-12-08T16:43:39.455Z,3.24
2023-12-08T16:46:18.261Z,3.26
2023-12-08T16:48:48.477Z,3.23
2023-12-08T16:51:18.299Z,3.20
2023-12-08T16:53:52.813Z,3.25
2023-12-08T16:56:25.963Z,3.21
2023-12-08T16:58:57.012Z,3.18
2023-12-08T17:01:34.235Z,3.24
2023-12-08T17:04:04.521Z,3.21
2023-12-08T17:06:36.438Z,3.17
2023-12-08T17:09:16.211Z,3.22
2023-12-08T17:11:45.804Z,3.25
2023-12-08T17:14:15.767Z,3.22
2023-12-08T17:16:47.520Z,3.18
2023-12-08T17:19:17.237Z,3.13
2023-12-08T17:21:46.845Z,3.14
2023-12-08T17:24:20.030Z,3.13
2023-12-08T17:26:53.700Z,3.11
2023-12-08T17:29:23.216Z,3.13
2023-12-08T17:31:52.930Z,3.14
2023-12-08T17:34:23.306Z,3.18
2023-12-08T17:36:53.124Z,3.13
2023-12-08T17:39:24.578Z,3.15
2023-12-08T17:41:54.166Z,3.10
2023-12-08T17:44:23.725Z,3.09
2023-12-08T17:46:55.383Z,3.18
2023-12-08T17:49:25.445Z,3.13
2023-12-08T17:51:55.805Z,3.13
2023-12-08T17:54:28.690Z,3.16
2023-12-08T17:57:00.880Z,3.10
2023-12-08T17:59:30.613Z,3.13
2023-12-08T18:02:00.866Z,3.09
2023-12-08T18:04:30.674Z,3.09
2023-12-08T18:07:00.771Z,3.04
2023-12-08T18:09:34.435Z,3.15
2023-12-08T18:12:03.698Z,3.15
2023-12-08T18:14:39.258Z,3.05
2023-12-08T18:17:08.973Z,3.09
2023-12-08T18:19:38.751Z,3.07
2023-12-08T18:22:08.316Z,2.76
2023-12-08T18:24:41.804Z,2.95
2023-12-08T18:27:20.183Z,3.07
2023-12-08T18:29:59.562Z,3.07
2023-12-08T18:32:29.059Z,3.13
2023-12-08T18:34:59.158Z,3.14
2023-12-08T18:37:29.362Z,3.09
2023-12-08T18:40:03.297Z,3.17
2023-12-08T18:42:35.958Z,3.14
2023-12-08T18:45:10.527Z,3.18
2023-12-08T18:47:45.432Z,3.17
2023-12-08T18:50:17.271Z,3.18
2023-12-08T18:52:47.811Z,3.12
2023-12-08T18:55:23.970Z,3.07
2023-12-08T18:57:53.760Z,3.09
2023-12-08T19:00:24.453Z,2.92
2023-12-08T19:02:54.024Z,2.83
2023-12-08T19:05:23.953Z,2.91
2023-12-08T19:07:57.118Z,2.88
2023-12-08T19:10:28.599Z,2.89
2023-12-08T19:12:59.389Z,2.85
2023-12-08T19:15:31.101Z,2.79
2023-12-08T19:18:00.760Z,2.83
2023-12-08T19:20:35.158Z,2.78
2023-12-08T19:23:05.026Z,2.80
2023-12-08T19:25:36.703Z,2.69
2023-12-08T19:28:06.737Z,2.63
2023-12-08T19:30:36.458Z,2.68
2023-12-08T19:33:09.629Z,2.67
2023-12-08T19:35:41.837Z,2.64
2023-12-08T19:38:12.045Z,2.66
2023-12-08T19:40:43.246Z,2.77
2023-12-08T19:43:12.788Z,2.76
2023-12-08T19:45:42.614Z,2.78
2023-12-08T19:48:16.982Z,2.79
2023-12-08T19:50:47.920Z,2.76
2023-12-08T19:53:18.204Z,2.82
2023-12-08T19:55:51.538Z,2.84
2023-12-08T19:58:21.475Z,2.83
2023-12-08T20:00:51.022Z,2.76
2023-12-08T20:03:20.642Z,2.82
2023-12-08T20:05:51.611Z,2.85
2023-12-08T20:08:22.850Z,2.88
2023-12-08T20:10:56.380Z,2.92
2023-12-08T20:13:26.099Z,2.92
2023-12-08T20:15:57.003Z,2.99
2023-12-08T20:18:26.809Z,2.85
2023-12-08T20:20:56.584Z,2.92
2023-12-08T20:23:27.818Z,3.02
2023-12-08T20:25:59.177Z,3.04
2023-12-08T20:28:30.105Z,3.05
2023-12-08T20:31:00.443Z,2.96
2023-12-08T20:33:30.296Z,2.90
2023-12-08T20:36:00.635Z,2.96
2023-12-08T20:38:30.476Z,2.97
2023-12-08T20:41:01.314Z,2.93
2023-12-08T20:43:30.997Z,2.79
2023-12-08T20:46:01.751Z,2.63
2023-12-08T20:48:31.297Z,2.73
2023-12-08T20:51:01.445Z,2.79
2023-12-08T20:53:33.568Z,2.71
2023-12-08T20:56:09.683Z,2.90
2023-12-08T20:58:39.544Z,2.92
2023-12-08T21:01:09.417Z,2.85
2023-12-08T21:03:39.520Z,3.04
2023-12-08T21:06:10.076Z,3.06
2023-12-08T21:08:39.670Z,3.01
2023-12-08T21:11:10.783Z,2.91
2023-12-08T21:13:40.740Z,2.86
2023-12-08T21:16:10.365Z,2.99
2023-12-08T21:18:39.946Z,2.76
2023-12-08T21:21:11.451Z,2.95
2023-12-08T21:23:40.844Z,2.80
2023-12-08T21:26:12.113Z,2.86
2023-12-08T21:28:41.952Z,2.87
2023-12-08T21:31:11.341Z,2.92
2023-12-08T21:33:43.151Z,2.97
2023-12-08T21:36:13.581Z,3.01
2023-12-08T21:38:42.701Z,2.78
2023-12-08T21:41:15.928Z,3.02
2023-12-08T21:43:45.104Z,3.04
2023-12-08T21:46:14.733Z,2.91
2023-12-08T21:48:45.170Z,2.96
2023-12-08T21:51:15.995Z,2.98
2023-12-08T21:53:45.440Z,2.75
2023-12-08T21:56:28.466Z,2.69
2023-12-08T21:59:02.831Z,2.63
2023-12-08T22:01:32.986Z,2.77
2023-12-08T22:04:02.456Z,2.75
2023-12-08T22:06:35.549Z,2.84
2023-12-08T22:09:05.997Z,2.77
2023-12-08T22:11:37.038Z,2.85
2023-12-08T22:14:06.625Z,2.78
2023-12-08T22:16:36.488Z,2.85
2023-12-08T22:19:06.680Z,2.86
2023-12-08T22:21:38.341Z,2.82
2023-12-08T22:24:10.469Z,2.58
2023-12-08T22:26:41.413Z,2.73
2023-12-08T22:29:10.830Z,2.72
2023-12-08T22:31:40.053Z,2.81
2023-12-08T22:34:09.215Z,2.80
2023-12-08T22:36:39.549Z,2.85
2023-12-08T22:39:08.980Z,2.90
2023-12-08T22:41:38.275Z,2.74
2023-12-08T22:44:10.222Z,2.82
2023-12-08T22:46:39.786Z,2.88
2023-12-08T22:49:10.497Z,2.84
2023-12-08T22:51:48.642Z,2.90
2023-12-08T22:54:27.440Z,2.87
2023-12-08T22:56:57.316Z,2.81
2023-12-08T22:59:28.794Z,2.82
2023-12-08T23:01:59.014Z,2.89
2023-12-08T23:04:28.798Z,2.92
2023-12-08T23:06:58.385Z,2.85
2023-12-08T23:09:28.401Z,2.92
2023-12-08T23:11:57.703Z,3.01
2023-12-08T23:14:28.965Z,3.04
2023-12-08T23:16:58.502Z,3.01
2023-12-08T23:19:28.206Z,2.85
2023-12-08T23:21:58.148Z,2.81
2023-12-08T23:24:28.422Z,2.83
2023-12-08T23:26:57.628Z,2.90
2023-12-08T23:29:30.232Z,2.88
2023-12-08T23:31:59.985Z,2.89
2023-12-08T23:34:29.481Z,2.96
2023-12-08T23:36:58.815Z,2.97
2023-12-08T23:39:28.247Z,2.97
2023-12-08T23:41:57.649Z,2.97
2023-12-08T23:44:28.966Z,2.97
2023-12-08T23:46:59.693Z,2.88
2023-12-08T23:49:29.660Z,2.85
2023-12-08T23:51:59.284Z,2.85
2023-12-08T23:54:28.595Z,2.80
2023-12-08T23:56:58.244Z,2.77
2023-12-08T23:59:28.730Z,2.65
